createdAt,value
2022-12-15T00:02:38.888Z,20.23
2022-12-15T00:05:25.714Z,14.23
2022-12-15T00:08:11.106Z,18.20
2022-12-15T00:10:56.831Z,19.30
2022-12-15T00:13:42.763Z,14.45
2022-12-15T00:16:28.729Z,14.02
2022-12-15T00:19:14.233Z,25.58
2022-12-15T00:21:59.815Z,19.02
2022-12-15T00:24:49.740Z,14.98
2022-12-15T00:27:35.715Z,19.33
2022-12-15T00:30:23.079Z,19.40
2022-12-15T00:33:09.077Z,19.65
2022-12-15T00:35:56.213Z,16.15
2022-12-15T00:38:44.261Z,15.30
2022-12-15T00:41:13.958Z,20.33
2022-12-15T00:43:41.405Z,18.98
2022-12-15T00:46:27.503Z,15.35
2022-12-15T00:48:54.708Z,25.17
2022-12-15T00:51:21.742Z,18.58
2022-12-15T00:54:08.417Z,21.27
2022-12-15T00:56:56.513Z,13.80
2022-12-15T00:59:41.971Z,17.80
2022-12-15T01:02:27.389Z,19.27
2022-12-15T01:05:13.170Z,20.08
2022-12-15T01:07:58.630Z,14.40
2022-12-15T01:10:44.595Z,18.40
2022-12-15T01:13:32.067Z,18.33
2022-12-15T01:16:17.824Z,13.90
2022-12-15T01:19:03.141Z,15.68
2022-12-15T01:21:32.182Z,22.48
2022-12-15T01:23:59.135Z,18.65
2022-12-15T01:26:26.089Z,19.40
2022-12-15T01:28:53.126Z,14.95
2022-12-15T01:31:20.145Z,20.55
2022-12-15T01:33:47.340Z,17.38
2022-12-15T01:36:14.374Z,23.17
2022-12-15T01:38:41.429Z,16.90
2022-12-15T01:41:12.350Z,16.63
2022-12-15T01:43:41.172Z,17.33
2022-12-15T01:46:17.783Z,14.00
2022-12-15T01:48:59.736Z,14.55
2022-12-15T01:51:32.156Z,14.88
2022-12-15T01:54:11.045Z,16.60
2022-12-15T01:56:43.222Z,16.00
2022-12-15T01:59:15.143Z,14.07
2022-12-15T02:01:42.413Z,12.60
2022-12-15T02:04:10.059Z,14.65
2022-12-15T02:06:37.511Z,20.33
2022-12-15T02:09:07.544Z,15.52
2022-12-15T02:11:49.468Z,18.75
2022-12-15T02:14:39.930Z,17.88
2022-12-15T02:17:22.996Z,18.58
2022-12-15T02:20:06.190Z,18.63
2022-12-15T02:22:48.244Z,19.10
2022-12-15T02:25:38.286Z,17.13
2022-12-15T02:28:10.332Z,17.02
2022-12-15T02:30:40.314Z,17.08
2022-12-15T02:33:15.078Z,19.52
2022-12-15T02:36:02.188Z,21.50
2022-12-15T02:38:37.073Z,14.80
2022-12-15T02:41:10.119Z,15.95
2022-12-15T02:43:38.964Z,21.23
2022-12-15T02:46:32.218Z,23.95
2022-12-15T02:49:23.810Z,17.70
2022-12-15T02:52:11.290Z,14.43
2022-12-15T02:55:01.839Z,15.40
2022-12-15T02:57:43.974Z,21.40
2022-12-15T03:00:12.672Z,15.38
2022-12-15T03:02:44.410Z,15.15
2022-12-15T03:05:13.105Z,16.30
2022-12-15T03:07:42.707Z,14.30
2022-12-15T03:10:13.065Z,18.02
2022-12-15T03:12:40.196Z,18.52
2022-12-15T03:15:07.764Z,18.95
2022-12-15T03:17:34.744Z,17.17
2022-12-15T03:20:02.757Z,13.35
2022-12-15T03:22:29.868Z,12.93
2022-12-15T03:24:57.218Z,17.50
2022-12-15T03:27:24.242Z,14.88
2022-12-15T03:29:51.272Z,18.80
2022-12-15T03:32:18.374Z,19.48
2022-12-15T03:34:45.556Z,15.80
2022-12-15T03:37:12.536Z,12.80
2022-12-15T03:39:39.543Z,16.95
2022-12-15T03:42:07.445Z,17.00
2022-12-15T03:44:34.600Z,23.13
2022-12-15T03:47:03.700Z,14.88
2022-12-15T03:49:31.059Z,20.50
2022-12-15T03:51:58.075Z,15.07
2022-12-15T03:54:25.138Z,15.05
2022-12-15T03:56:52.166Z,18.55
2022-12-15T03:59:19.480Z,15.00
2022-12-15T04:01:49.082Z,18.05
2022-12-15T04:04:16.356Z,16.83
2022-12-15T04:06:43.447Z,19.40
2022-12-15T04:09:10.923Z,21.60
2022-12-15T04:11:37.992Z,19.70
2022-12-15T04:14:06.207Z,21.83
2022-12-15T04:16:33.279Z,18.48
2022-12-15T04:19:18.681Z,18.77
2022-12-15T04:21:45.774Z,19.73
2022-12-15T04:24:31.666Z,19.00
2022-12-15T04:27:17.092Z,16.20
2022-12-15T04:30:02.450Z,19.25
2022-12-15T04:32:49.841Z,25.95
2022-12-15T04:35:37.401Z,19.52
2022-12-15T04:38:22.780Z,20.38
2022-12-15T04:41:08.545Z,18.00
2022-12-15T04:43:54.131Z,16.75
2022-12-15T04:46:39.612Z,20.88
2022-12-15T04:49:25.735Z,16.95
2022-12-15T04:52:11.127Z,19.55
2022-12-15T04:54:56.515Z,17.20
2022-12-15T04:57:41.948Z,16.55
2022-12-15T05:00:28.424Z,20.88
2022-12-15T05:03:29.961Z,21.27
2022-12-15T05:06:17.236Z,19.65
2022-12-15T05:09:02.622Z,20.67
2022-12-15T05:11:48.567Z,20.25
2022-12-15T05:14:33.883Z,13.88
2022-12-15T05:17:19.221Z,20.05
2022-12-15T05:20:04.685Z,18.45
2022-12-15T05:22:49.964Z,19.05
2022-12-15T05:25:36.298Z,23.85
2022-12-15T05:28:27.426Z,14.43
2022-12-15T05:31:13.010Z,21.15
2022-12-15T05:33:40.269Z,25.88
2022-12-15T05:36:07.758Z,30.05
2022-12-15T05:38:35.556Z,30.15
2022-12-15T05:41:02.841Z,25.45
2022-12-15T05:43:30.378Z,27.73
2022-12-15T05:46:03.149Z,27.67
2022-12-15T05:48:30.173Z,18.52
2022-12-15T05:50:57.156Z,23.42
2022-12-15T05:53:24.184Z,20.15
2022-12-15T05:55:51.189Z,18.70
2022-12-15T05:58:18.211Z,17.83
2022-12-15T06:00:45.171Z,25.23
2022-12-15T06:03:12.272Z,20.95
2022-12-15T06:05:40.121Z,17.20
2022-12-15T06:08:07.425Z,19.83
2022-12-15T06:10:34.428Z,18.90
2022-12-15T06:13:01.748Z,23.05
2022-12-15T06:15:28.748Z,22.52
2022-12-15T06:17:55.837Z,22.27
2022-12-15T06:20:22.917Z,82.72
2022-12-15T06:22:50.316Z,93.60
2022-12-15T06:25:17.784Z,88.80
2022-12-15T06:27:44.821Z,56.40
2022-12-15T06:30:12.381Z,29.95
2022-12-15T06:32:39.689Z,24.02
2022-12-15T06:35:07.293Z,30.92
2022-12-15T06:37:35.507Z,27.52
2022-12-15T06:40:02.720Z,22.08
2022-12-15T06:42:30.081Z,25.70
2022-12-15T06:44:57.132Z,19.55
2022-12-15T06:47:24.118Z,25.38
2022-12-15T06:49:51.394Z,72.57
2022-12-15T06:52:18.425Z,30.02
2022-12-15T06:54:45.474Z,23.92
2022-12-15T06:57:12.455Z,24.00
2022-12-15T06:59:39.646Z,25.77
2022-12-15T07:02:21.112Z,36.25
2022-12-15T07:04:50.842Z,24.80
2022-12-15T07:07:17.822Z,34.15
2022-12-15T07:09:44.816Z,29.50
2022-12-15T07:12:12.574Z,40.63
2022-12-15T07:14:39.918Z,51.53
2022-12-15T07:17:07.158Z,59.75
2022-12-15T07:19:34.189Z,92.15
2022-12-15T07:22:01.410Z,38.47
2022-12-15T07:24:28.684Z,43.00
2022-12-15T07:26:55.751Z,46.72
2022-12-15T07:29:23.628Z,65.60
2022-12-15T07:31:51.099Z,47.92
2022-12-15T07:34:18.335Z,34.00
2022-12-15T07:36:51.553Z,44.78
2022-12-15T07:39:19.294Z,35.08
2022-12-15T07:41:46.737Z,36.97
2022-12-15T07:44:14.837Z,42.50
2022-12-15T07:46:46.729Z,37.00
2022-12-15T07:49:13.999Z,39.40
2022-12-15T07:51:41.593Z,36.00
2022-12-15T07:54:11.395Z,27.70
2022-12-15T07:56:39.617Z,25.40
2022-12-15T07:59:07.582Z,33.63
2022-12-15T08:01:37.801Z,39.83
2022-12-15T08:04:07.493Z,31.88
2022-12-15T08:06:35.168Z,21.67
2022-12-15T08:09:02.324Z,21.10
2022-12-15T08:11:33.925Z,20.80
2022-12-15T08:14:03.089Z,34.50
2022-12-15T08:16:31.782Z,27.95
2022-12-15T08:18:58.961Z,24.27
2022-12-15T08:21:26.022Z,55.08
2022-12-15T08:23:53.161Z,43.50
2022-12-15T08:26:23.832Z,34.72
2022-12-15T08:31:23.268Z,31.33
2022-12-15T08:33:51.209Z,29.75
2022-12-15T08:36:19.653Z,23.70
2022-12-15T08:38:47.207Z,28.95
2022-12-15T08:41:17.502Z,50.55
2022-12-15T08:43:48.561Z,42.75
2022-12-15T08:46:18.352Z,43.65
2022-12-15T08:48:46.628Z,42.95
2022-12-15T08:51:14.334Z,48.03
2022-12-15T08:53:41.571Z,35.60
2022-12-15T08:56:18.421Z,23.90
2022-12-15T08:58:46.738Z,26.70
2022-12-15T09:01:23.941Z,30.25
2022-12-15T09:03:53.835Z,37.55
2022-12-15T09:06:24.274Z,44.97
2022-12-15T09:08:54.803Z,40.70
2022-12-15T09:11:22.479Z,49.95
2022-12-15T09:13:49.889Z,53.80
2022-12-15T09:16:20.918Z,35.90
2022-12-15T09:18:52.946Z,37.55
2022-12-15T09:21:26.086Z,31.45
2022-12-15T09:23:55.905Z,27.67
2022-12-15T09:26:23.800Z,32.80
2022-12-15T09:28:51.948Z,25.55
2022-12-15T09:31:25.218Z,28.35
2022-12-15T09:33:54.227Z,32.17
2022-12-15T09:36:22.453Z,34.47
2022-12-15T09:38:49.820Z,30.25
2022-12-15T09:41:27.124Z,39.50
2022-12-15T09:44:15.734Z,33.85
2022-12-15T09:46:59.706Z,32.53
2022-12-15T09:49:53.121Z,33.20
2022-12-15T09:52:25.354Z,33.05
2022-12-15T09:54:52.905Z,43.20
2022-12-15T09:57:31.624Z,29.15
2022-12-15T10:00:16.644Z,44.75
2022-12-15T10:02:52.590Z,28.00
2022-12-15T10:06:07.348Z,32.67
2022-12-15T10:08:30.893Z,29.23
2022-12-15T10:11:01.701Z,29.90
2022-12-15T10:13:34.330Z,28.95
2022-12-15T10:16:16.648Z,30.73
2022-12-15T10:19:07.454Z,29.80
2022-12-15T10:21:37.358Z,31.55
2022-12-15T10:24:31.434Z,28.98
2022-12-15T10:27:30.236Z,36.03
2022-12-15T10:30:02.675Z,29.25
2022-12-15T10:32:50.429Z,34.05
2022-12-15T10:35:22.992Z,34.50
2022-12-15T10:37:50.120Z,37.88
2022-12-15T10:40:19.804Z,32.00
2022-12-15T10:42:49.369Z,34.13
2022-12-15T10:45:36.456Z,31.27
2022-12-15T10:48:06.969Z,39.47
2022-12-15T10:50:37.479Z,30.50
2022-12-15T10:53:09.712Z,39.78
2022-12-15T10:55:42.317Z,44.83
2022-12-15T10:58:22.486Z,38.92
2022-12-15T11:01:14.563Z,33.28
2022-12-15T11:03:42.034Z,32.70
2022-12-15T11:06:24.215Z,36.30
2022-12-15T11:08:54.430Z,29.20
2022-12-15T11:12:03.603Z,29.15
2022-12-15T11:14:43.802Z,30.33
2022-12-15T11:17:17.193Z,32.38
2022-12-15T11:19:52.219Z,32.63
2022-12-15T11:22:46.504Z,30.17
2022-12-15T11:25:22.983Z,32.67
2022-12-15T11:27:54.188Z,41.83
2022-12-15T11:30:24.458Z,46.97
2022-12-15T11:32:55.620Z,46.60
2022-12-15T11:35:30.665Z,31.88
2022-12-15T11:38:08.828Z,30.05
2022-12-15T11:40:43.494Z,25.85
2022-12-15T11:43:31.617Z,27.15
2022-12-15T11:46:23.066Z,24.67
2022-12-15T11:49:14.851Z,28.23
2022-12-15T11:51:50.340Z,27.05
2022-12-15T11:54:40.495Z,34.67
2022-12-15T11:57:32.781Z,23.00
2022-12-15T12:00:19.422Z,26.88
2022-12-15T12:02:55.747Z,30.38
2022-12-15T12:05:31.758Z,25.50
2022-12-15T12:08:27.939Z,55.55
2022-12-15T12:11:13.630Z,66.05
2022-12-15T12:14:09.658Z,78.70
2022-12-15T12:17:01.549Z,59.22
2022-12-15T12:19:42.927Z,55.33
2022-12-15T12:22:20.710Z,39.03
2022-12-15T12:25:14.481Z,27.40
2022-12-15T12:27:52.971Z,27.17
2022-12-15T12:30:22.541Z,23.02
2022-12-15T12:33:03.241Z,23.40
2022-12-15T12:35:56.072Z,29.23
2022-12-15T12:38:29.782Z,23.65
2022-12-15T12:41:20.528Z,29.83
2022-12-15T12:44:00.816Z,27.17
2022-12-15T12:46:37.347Z,29.30
2022-12-15T12:49:18.717Z,27.00
2022-12-15T12:54:34.036Z,26.42
2022-12-15T12:57:01.885Z,22.15
2022-12-15T12:59:28.847Z,22.55
2022-12-15T13:02:21.996Z,26.65
2022-12-15T13:04:52.275Z,22.23
2022-12-15T13:07:37.772Z,28.52
2022-12-15T13:10:07.849Z,24.88
2022-12-15T13:12:59.235Z,25.83
2022-12-15T13:15:37.289Z,27.85
2022-12-15T13:18:16.075Z,23.38
2022-12-15T13:20:45.103Z,24.17
2022-12-15T13:23:21.918Z,33.45
2022-12-15T13:25:57.799Z,30.40
2022-12-15T13:28:35.665Z,27.88
2022-12-15T13:31:25.240Z,32.47
2022-12-15T13:33:52.627Z,31.15
2022-12-15T13:36:38.092Z,26.25
2022-12-15T13:39:28.076Z,31.92
2022-12-15T13:42:31.416Z,31.45
2022-12-15T13:44:48.878Z,31.10
2022-12-15T13:47:18.850Z,30.58
2022-12-15T13:50:01.466Z,29.20
2022-12-15T13:53:16.683Z,36.05
2022-12-15T13:55:28.239Z,30.83
2022-12-15T13:58:17.388Z,39.03
2022-12-15T14:00:58.105Z,49.28
2022-12-15T14:03:26.422Z,35.80
2022-12-15T14:08:45.081Z,40.08
2022-12-15T14:11:51.213Z,48.90
2022-12-15T14:14:24.386Z,40.97
2022-12-15T14:16:54.502Z,32.88
2022-12-15T14:19:21.612Z,42.60
2022-12-15T14:21:57.061Z,29.75
2022-12-15T14:24:38.632Z,33.17
2022-12-15T14:27:10.031Z,35.92
2022-12-15T14:29:37.154Z,31.05
2022-12-15T14:32:05.881Z,32.15
2022-12-15T14:34:39.306Z,35.78
2022-12-15T14:37:18.888Z,37.17
2022-12-15T14:39:50.379Z,32.20
2022-12-15T14:42:23.215Z,31.40
2022-12-15T14:44:57.519Z,36.70
2022-12-15T14:47:38.855Z,33.08
2022-12-15T14:50:13.611Z,36.63
2022-12-15T14:52:43.450Z,54.22
2022-12-15T14:55:31.803Z,46.78
2022-12-15T14:57:59.713Z,35.38
2022-12-15T15:00:36.717Z,38.35
2022-12-15T15:03:14.143Z,42.40
2022-12-15T15:03:19.956Z,40.03
2022-12-15T15:05:57.918Z,39.17
2022-12-15T15:08:34.868Z,32.88
2022-12-15T15:11:21.216Z,32.45
2022-12-15T15:13:48.423Z,40.65
2022-12-15T15:16:18.875Z,35.78
2022-12-15T15:18:51.999Z,33.10
2022-12-15T15:21:22.751Z,30.85
2022-12-15T15:24:29.690Z,35.05
2022-12-15T15:27:35.531Z,32.78
2022-12-15T15:30:14.616Z,37.33
2022-12-15T15:32:59.056Z,34.00
2022-12-15T15:35:30.906Z,37.53
2022-12-15T15:38:27.161Z,43.75
2022-12-15T15:40:57.036Z,40.65
2022-12-15T15:43:25.747Z,34.47
2022-12-15T15:46:00.654Z,33.47
2022-12-15T15:48:32.565Z,36.70
2022-12-15T15:51:00.765Z,31.70
2022-12-15T15:53:31.745Z,34.17
2022-12-15T15:56:00.073Z,40.88
2022-12-15T15:58:27.105Z,36.97
2022-12-15T16:00:54.190Z,42.03
2022-12-15T16:03:21.463Z,38.92
2022-12-15T16:05:48.985Z,54.17
2022-12-15T16:08:20.011Z,52.47
2022-12-15T16:10:48.768Z,44.55
2022-12-15T16:13:25.636Z,44.67
2022-12-15T16:15:53.363Z,46.83
2022-12-15T16:18:21.150Z,56.03
2022-12-15T16:20:50.776Z,88.63
2022-12-15T16:23:22.173Z,82.60
2022-12-15T16:25:54.498Z,51.22
2022-12-15T16:28:30.832Z,42.80
2022-12-15T16:30:58.879Z,42.63
2022-12-15T16:33:26.056Z,39.63
2022-12-15T16:35:53.592Z,44.05
2022-12-15T16:38:26.761Z,49.25
2022-12-15T16:40:55.554Z,46.28
2022-12-15T16:43:26.931Z,46.78
2022-12-15T16:45:56.322Z,49.00
2022-12-15T16:48:23.476Z,47.47
2022-12-15T16:50:53.724Z,49.55
2022-12-15T16:53:26.700Z,44.70
2022-12-15T16:55:59.539Z,43.45
2022-12-15T16:58:28.780Z,50.85
2022-12-15T17:00:56.130Z,51.65
2022-12-15T17:03:25.893Z,50.70
2022-12-15T17:05:56.319Z,53.83
2022-12-15T17:08:34.707Z,52.13
2022-12-15T17:11:02.806Z,45.15
2022-12-15T17:13:45.578Z,54.72
2022-12-15T17:16:14.483Z,53.38
2022-12-15T17:18:43.013Z,43.97
2022-12-15T17:21:11.353Z,48.53
2022-12-15T17:23:39.960Z,51.38
2022-12-15T17:26:25.941Z,42.22
2022-12-15T17:28:56.522Z,46.30
2022-12-15T17:31:27.682Z,46.90
2022-12-15T17:36:26.762Z,52.53
2022-12-15T17:38:59.164Z,47.25
2022-12-15T17:41:59.312Z,47.35
2022-12-15T17:44:35.421Z,63.28
2022-12-15T17:47:09.178Z,60.55
2022-12-15T17:49:38.900Z,57.03
2022-12-15T17:52:28.423Z,50.28
2022-12-15T17:54:56.312Z,56.30
2022-12-15T17:57:23.424Z,57.95
2022-12-15T17:59:50.437Z,45.50
2022-12-15T18:02:17.649Z,54.83
2022-12-15T18:04:45.008Z,59.80
2022-12-15T18:07:16.521Z,66.38
2022-12-15T18:09:44.227Z,67.05
2022-12-15T18:12:25.249Z,89.63
2022-12-15T18:14:53.053Z,67.43
2022-12-15T18:17:20.699Z,74.93
2022-12-15T18:19:48.431Z,48.45
2022-12-15T18:22:23.466Z,61.00
2022-12-15T18:24:52.818Z,54.83
2022-12-15T18:27:23.287Z,57.33
2022-12-15T18:29:50.626Z,43.55
2022-12-15T18:32:19.234Z,41.53
2022-12-15T18:34:46.805Z,43.78
2022-12-15T18:37:16.665Z,42.70
2022-12-15T18:39:43.888Z,44.47
2022-12-15T18:42:15.840Z,48.53
2022-12-15T18:44:47.761Z,49.10
2022-12-15T18:47:17.142Z,52.67
2022-12-15T18:49:44.675Z,45.78
2022-12-15T18:52:17.254Z,47.60
2022-12-15T18:54:44.934Z,51.45
2022-12-15T18:57:30.540Z,55.10
2022-12-15T19:00:18.591Z,53.50
2022-12-15T19:02:45.810Z,51.05
2022-12-15T19:05:28.718Z,51.75
2022-12-15T19:08:13.239Z,48.33
2022-12-15T19:10:48.288Z,46.33
2022-12-15T19:13:17.829Z,52.20
2022-12-15T19:15:45.243Z,46.75
2022-12-15T19:18:36.603Z,55.65
2022-12-15T19:21:42.097Z,47.90
2022-12-15T19:24:54.872Z,45.50
2022-12-15T19:27:26.539Z,45.60
2022-12-15T19:29:54.586Z,53.30
2022-12-15T19:32:22.899Z,45.67
2022-12-15T19:34:50.251Z,52.15
2022-12-15T19:37:26.967Z,46.13
2022-12-15T19:39:57.608Z,43.13
2022-12-15T19:42:31.173Z,50.83
2022-12-15T19:44:58.654Z,45.90
2022-12-15T19:47:25.701Z,51.55
2022-12-15T19:49:52.923Z,51.35
2022-12-15T19:52:22.235Z,44.78
2022-12-15T19:54:50.753Z,46.97
2022-12-15T19:57:19.390Z,45.15
2022-12-15T19:59:46.641Z,50.17
2022-12-15T20:02:19.496Z,38.85
2022-12-15T20:04:48.109Z,91.13
2022-12-15T20:07:18.620Z,80.68
2022-12-15T20:09:46.747Z,53.40
2022-12-15T20:12:18.502Z,57.40
2022-12-15T20:14:47.057Z,51.45
2022-12-15T20:17:14.704Z,64.95
2022-12-15T20:19:42.924Z,61.00
2022-12-15T20:22:19.574Z,52.60
2022-12-15T20:24:47.401Z,55.17
2022-12-15T20:27:17.055Z,55.13
2022-12-15T20:29:44.844Z,45.65
2022-12-15T20:32:20.097Z,46.40
2022-12-15T20:34:48.012Z,44.50
2022-12-15T20:37:26.888Z,44.97
2022-12-15T20:39:57.350Z,65.75
2022-12-15T20:42:25.291Z,41.88
2022-12-15T20:44:52.281Z,55.17
2022-12-15T20:47:24.980Z,49.10
2022-12-15T20:49:54.188Z,49.50
2022-12-15T20:52:24.405Z,58.30
2022-12-15T20:54:52.717Z,46.22
2022-12-15T20:57:20.290Z,48.55
2022-12-15T20:59:47.680Z,51.45
2022-12-15T21:02:20.443Z,51.13
2022-12-15T21:04:48.291Z,49.58
2022-12-15T21:07:15.505Z,47.80
2022-12-15T21:09:42.701Z,73.85
2022-12-15T21:12:28.146Z,55.03
2022-12-15T21:14:55.368Z,86.30
2022-12-15T21:17:24.312Z,50.22
2022-12-15T21:19:52.118Z,47.50
2022-12-15T21:22:23.762Z,47.72
2022-12-15T21:24:53.058Z,44.90
2022-12-15T21:27:21.488Z,44.83
2022-12-15T21:29:52.706Z,49.83
2022-12-15T21:32:21.141Z,46.60
2022-12-15T21:34:49.738Z,45.58
2022-12-15T21:37:28.467Z,57.25
2022-12-15T21:39:56.525Z,52.70
2022-12-15T21:42:24.275Z,56.75
2022-12-15T21:44:51.290Z,50.83
2022-12-15T21:47:24.835Z,45.03
2022-12-15T21:49:52.338Z,68.72
2022-12-15T21:52:21.157Z,78.45
2022-12-15T21:54:48.271Z,102.50
2022-12-15T21:57:15.270Z,59.13
2022-12-15T21:59:42.933Z,55.30
2022-12-15T22:02:25.406Z,48.28
2022-12-15T22:04:52.727Z,43.58
2022-12-15T22:07:22.092Z,45.70
2022-12-15T22:09:49.276Z,48.70
2022-12-15T22:12:25.667Z,45.70
2022-12-15T22:14:52.837Z,44.95
2022-12-15T22:17:22.041Z,48.97
2022-12-15T22:19:49.290Z,49.95
2022-12-15T22:22:16.597Z,43.40
2022-12-15T22:24:43.745Z,44.97
2022-12-15T22:27:22.591Z,43.90
2022-12-15T22:29:50.401Z,48.42
2022-12-15T22:32:18.054Z,49.03
2022-12-15T22:34:46.102Z,58.03
2022-12-15T22:37:13.132Z,42.95
2022-12-15T22:39:40.212Z,47.88
2022-12-15T22:42:08.467Z,40.58
2022-12-15T22:44:37.667Z,53.38
2022-12-15T22:47:10.388Z,44.72
2022-12-15T22:49:40.088Z,49.63
2022-12-15T22:52:17.099Z,44.30
2022-12-15T22:54:45.909Z,51.00
2022-12-15T22:57:21.259Z,54.15
2022-12-15T22:59:54.737Z,44.65
2022-12-15T23:02:21.941Z,47.25
2022-12-15T23:04:49.016Z,49.45
2022-12-15T23:07:16.030Z,46.03
2022-12-15T23:09:43.041Z,49.05
2022-12-15T23:12:10.145Z,46.95
2022-12-15T23:14:55.813Z,47.63
2022-12-15T23:17:22.834Z,40.85
2022-12-15T23:19:49.797Z,44.25
2022-12-15T23:22:16.794Z,43.10
2022-12-15T23:24:43.863Z,52.00
2022-12-15T23:27:11.642Z,42.75
2022-12-15T23:29:38.681Z,48.92
2022-12-15T23:32:08.982Z,53.72
2022-12-15T23:34:36.961Z,48.65
2022-12-15T23:37:03.979Z,48.83
2022-12-15T23:39:31.015Z,46.90
2022-12-15T23:41:58.033Z,49.13
2022-12-15T23:44:25.079Z,49.67
2022-12-15T23:46:52.187Z,57.30
2022-12-15T23:49:19.298Z,53.03
2022-12-15T23:51:46.309Z,48.60
2022-12-15T23:54:13.897Z,51.55
2022-12-15T23:56:41.101Z,44.17
2022-12-15T23:59:08.134Z,45.80
